Latest Coastal Weather Observations for Croker Island Airport

IDD60701

Issued at 10:31 am CST Tuesday 27 January 2015 (issued every 10 minutes, with the page automatically refreshed every 10 minutes)

About coastal observations | Map of coastal stations | Coastal observations for NT | Marine services | Other Formats
Station Details ID: 014308 Name: CROKER ISLAND AIRPORT Lat: -11.16 Lon: 132.48 Height: 9.2 m
Data from the previous 72 hours. | See also: Recent months for locations in Northern Territory
Date/Time
CST
Temp

°C
Wind Pressure Rain
since 9am
mm
Weather Cloud Vis
km
Sea
Height
m
Swell
Dir
 
Speed
knots
Gust
knots
hPa Trend Height
m
Period
s
Dir
27/10:30am 30.1 WNW 8 12 1008.0 - - - - - - - - -
27/10:00am 29.9 WNW 9 12 1008.2 - - - - - - - - -
27/09:30am 29.7 WNW 7 10 1008.2 - - - - - - - - -
27/09:00am 28.7 WSW 6 9 1008.4 - - - - - - - - -
27/08:30am 28.2 WSW 7 9 1008.5 - - - - - - - - -
27/08:00am 28.0 W 7 10 1008.0 - - - - - - - - -
27/07:30am 27.5 WSW 8 10 1007.9 - - - - - - - - -
27/07:00am 27.3 W 8 11 1007.5 - - - - - - - - -
27/06:30am 27.4 WSW 11 14 1007.2 - - - - - - - - -
27/06:00am 27.5 W 11 14 1006.6 - - - - - - - - -
27/05:30am 27.6 W 13 17 1006.6 - - - - - - - - -
27/05:00am 27.6 WNW 12 15 1006.3 - - - - - - - - -
27/04:30am 27.6 WNW 11 17 1006.3 - - - - - - - - -
27/04:00am 27.5 WNW 9 14 1006.3 - - - - - - - - -
27/03:30am 27.4 WNW 8 13 1005.9 - - - - - - - - -
27/03:00am 27.6 WNW 12 18 1005.9 - - - - - - - - -
27/02:30am 27.6 WNW 10 14 1006.2 - - - - - - - - -
27/02:00am 27.7 W 10 16 1006.6 - - - - - - - - -
27/01:30am 27.9 W 12 16 1007.3 - - - - - - - - -
27/01:00am 28.0 W 10 14 1007.8 - - - - - - - - -
27/12:30am 27.9 W 11 15 1008.1 - - - - - - - - -
27/12:00am 28.0 W 11 16 1008.3 - - - - - - - - -
 
Date/Time
CST
Temp

°C
Wind Pressure Rain
since 9am
mm
Weather Cloud Vis
km
Sea
Height
m
Swell
Dir
 
Speed
knots
Gust
knots
hPa Trend Height
m
Period
s
Dir
26/11:30pm 28.0 W 11 16 1008.5 - - - - - - - - -
26/11:00pm 28.0 W 11 16 1008.4 - - - - - - - - -
26/10:30pm 27.9 W 12 15 1008.1 - - - - - - - - -
26/10:00pm 28.0 W 13 17 1008.0 - - - - - - - - -
26/09:30pm 28.0 W 10 13 1007.7 - - - - - - - - -
26/09:00pm 28.0 WNW 10 13 1007.6 - - - - - - - - -
26/08:30pm 28.1 W 11 15 1007.4 - - - - - - - - -
26/08:00pm 28.0 WNW 8 13 1007.0 - - - - - - - - -
26/07:30pm 28.0 W 8 11 1006.7 - - - - - - - - -
26/07:00pm 28.3 W 9 13 1006.8 - - - - - - - - -
26/06:30pm 28.4 W 11 15 1006.5 - - - - - - - - -
26/06:00pm 28.7 W 10 13 1006.4 - - - - - - - - -
26/05:30pm 29.4 WNW 10 13 1006.0 - - - - - - - - -
26/05:00pm 30.4 WNW 10 15 1006.4 - - - - - - - - -
26/04:30pm 31.1 WNW 11 16 1006.6 - - - - - - - - -
26/04:00pm 31.4 WNW 10 15 1006.7 - - - - - - - - -
26/03:30pm 31.0 WNW 11 15 1006.5 - - - - - - - - -
26/03:00pm 31.8 NW 9 16 1006.7 - - - - - - - - -
26/02:30pm 31.4 NW 9 14 1006.7 - - - - - - - - -
26/02:00pm 31.1 WNW 10 13 1007.3 - - - - - - - - -
26/01:30pm 31.1 NW 9 15 1007.6 - - - - - - - - -
26/01:00pm 30.9 WNW 11 15 1007.5 - - - - - - - - -
26/12:30pm 30.7 WNW 10 16 1008.1 - - - - - - - - -
26/12:00pm 30.6 WNW 10 15 1008.7 - - - - - - - - -
26/11:30am 30.6 WNW 10 14 1009.3 - - - - - - - - -
26/11:00am 30.4 WNW 9 12 1009.7 - - - - - - - - -
26/10:30am 30.5 WNW 8 12 1009.6 - - - - - - - - -
26/10:00am 29.4 WNW 9 13 1009.6 - - - - - - - - -
26/09:30am 29.5 WNW 10 16 1009.8 - - - - - - - - -
26/09:00am 29.1 W 10 14 1009.5 - - - - - - - - -
26/08:30am 28.7 W 9 13 1009.4 - - - - - - - - -
26/08:00am 28.6 WNW 7 10 1009.4 - - - - - - - - -
26/07:30am 27.7 WNW 8 12 1009.4 - - - - - - - - -
26/07:00am 27.6 WNW 7 11 1009.0 - - - - - - - - -
26/06:30am 27.5 WNW 7 10 1008.6 - - - - - - - - -
26/06:00am 27.4 NW 5 8 1008.4 - - - - - - - - -
26/05:30am 27.5 WNW 6 9 1008.4 - - - - - - - - -
26/05:00am 27.6 WNW 6 8 1008.3 - - - - - - - - -
26/04:30am 27.5 WNW 6 8 1008.1 - - - - - - - - -
26/04:00am 27.4 WNW 6 8 1008.0 - - - - - - - - -
26/03:30am 27.4 W 7 9 1007.5 - - - - - - - - -
26/03:00am 27.3 WNW 6 9 1007.6 - - - - - - - - -
26/02:30am 27.3 W 6 9 1007.7 - - - - - - - - -
26/02:00am 27.3 W 6 8 1007.9 - - - - - - - - -
26/01:30am 27.4 W 6 8 1008.5 - - - - - - - - -
26/01:00am 27.5 W 5 8 1009.1 - - - - - - - - -
26/12:30am 27.7 W 7 9 1009.7 - - - - - - - - -
26/12:00am 27.7 W 6 9 1010.0 - - - - - - - - -
 
Date/Time
CST
Temp

°C
Wind Pressure Rain
since 9am
mm
Weather Cloud Vis
km
Sea
Height
m
Swell
Dir
 
Speed
knots
Gust
knots
hPa Trend Height
m
Period
s
Dir
25/11:30pm 27.7 W 6 8 1010.1 - - - - - - - - -
25/11:00pm 27.7 W 6 8 1009.9 - - - - - - - - -
25/10:30pm 27.9 W 9 13 1010.0 - - - - - - - - -
25/10:00pm 27.9 WNW 8 12 1009.5 - - - - - - - - -
25/09:30pm 28.0 WNW 11 15 1009.1 - - - - - - - - -
25/09:00pm 28.1 WNW 10 14 1008.6 - - - - - - - - -
25/08:30pm 27.9 WNW 9 14 1008.3 - - - - - - - - -
25/08:00pm 27.9 WNW 11 16 1008.0 - - - - - - - - -
25/07:30pm 27.6 WNW 10 15 1007.8 - - - - - - - - -
25/07:00pm 27.7 NW 10 14 1007.9 - - - - - - - - -
25/06:30pm 28.8 WNW 9 15 1007.6 - - - - - - - - -
25/06:00pm 29.5 WNW 12 18 1007.3 - - - - - - - - -
25/05:30pm 29.2 WNW 10 15 1007.3 - - - - - - - - -
25/05:00pm 30.0 WNW 11 17 1007.1 - - - - - - - - -
25/04:30pm 30.6 WNW 10 15 1006.8 - - - - - - - - -
25/04:00pm 29.4 NW 9 13 1007.1 - - - - - - - - -
25/03:30pm 29.4 NW 11 16 1007.7 - - - - - - - - -
25/03:00pm 30.1 NW 10 17 1008.4 - - - - - - - - -
25/02:30pm 31.1 NW 10 16 1008.6 - - - - - - - - -
25/02:00pm 31.1 WNW 11 15 1008.5 - - - - - - - - -
25/01:30pm 30.6 WNW 8 12 1008.8 - - - - - - - - -
25/01:00pm 30.4 NW 8 14 1009.1 - - - - - - - - -
25/12:30pm 29.9 WNW 9 15 1009.5 - - - - - - - - -
25/12:00pm 30.8 WNW 7 12 1009.8 - - - - - - - - -
25/11:30am 29.9 WNW 8 10 1010.2 - - - - - - - - -
25/11:00am 29.9 NNW 8 11 1010.7 - - - - - - - - -
25/10:30am 29.4 NNW 10 13 1011.1 - - - - - - - - -
25/10:00am 28.8 NW 6 10 1011.2 - - - - - - - - -
25/09:30am 28.7 NW 6 9 1011.2 - - - - - - - - -
25/09:00am 28.5 NW 7 12 1010.7 - - - - - - - - -
25/08:30am 28.6 NW 6 9 1010.5 - - - - - - - - -
25/08:00am 27.7 NNW 4 6 1010.1 - - - - - - - - -
25/07:30am 27.0 NW 6 9 1009.8 - - - - - - - - -
25/07:00am 26.6 WNW 8 11 1009.3 - - - - - - - - -
25/06:30am 26.5 WNW 6 9 1008.9 - - - - - - - - -
25/06:00am 26.3 WNW 5 8 1008.6 - - - - - - - - -
25/05:30am 26.4 NW 7 11 1008.9 - - - - - - - - -
25/05:00am 26.9 WNW 8 11 1008.6 - - - - - - - - -
25/04:30am 27.1 WSW 5 7 1008.2 - - - - - - - - -
25/04:00am 27.3 NW 5 7 1008.3 - - - - - - - - -
25/03:30am 27.2 WNW 7 10 1008.4 - - - - - - - - -
25/03:00am 27.3 WNW 9 13 1008.6 - - - - - - - - -
25/02:30am 27.1 WNW 7 11 1008.6 - - - - - - - - -
25/02:00am 27.0 WNW 7 12 1008.7 - - - - - - - - -
25/01:30am 26.9 WNW 9 13 1009.0 - - - - - - - - -
25/01:00am 26.9 W 9 11 1009.1 - - - - - - - - -
25/12:30am 27.1 W 10 14 1009.6 - - - - - - - - -
25/12:00am 27.3 WNW 10 15 1009.7 - - - - - - - - -
 
Date/Time
CST
Temp

°C
Wind Pressure Rain
since 9am
mm
Weather Cloud Vis
km
Sea
Height
m
Swell
Dir
 
Speed
knots
Gust
knots
hPa Trend Height
m
Period
s
Dir
24/11:30pm 27.4 WNW 11 15 1009.8 - - - - - - - - -
24/11:00pm 27.4 W 13 18 1010.0 - - - - - - - - -
24/10:30pm 27.4 WNW 13 18 1009.7 - - - - - - - - -
24/10:00pm 27.5 WNW 13 16 1009.4 - - - - - - - - -
24/09:30pm 27.6 WNW 13 18 1009.2 - - - - - - - - -
24/09:00pm 27.6 NW 11 17 1009.0 - - - - - - - - -
24/08:30pm 27.5 NW 9 14 1008.7 - - - - - - - - -
24/08:00pm 27.4 NW 11 15 1008.9 - - - - - - - - -
24/07:30pm 27.5 NW 11 17 1008.6 - - - - - - - - -
24/07:00pm 27.4 NW 10 15 1008.0 - - - - - - - - -
24/06:30pm 27.4 NW 11 17 1007.7 - - - - - - - - -
24/06:00pm 27.3 NW 10 14 1007.2 - - - - - - - - -
24/05:30pm 27.4 WNW 10 16 1006.9 - - - - - - - - -
24/05:00pm 28.2 NW 10 16 1006.3 - - - - - - - - -
24/04:30pm 27.4 NW 9 15 1006.3 - - - - - - - - -
24/04:00pm 27.6 NW 9 14 1006.6 - - - - - - - - -
24/03:30pm 27.7 NW 9 13 1006.5 - - - - - - - - -
24/03:00pm 26.9 NW 10 15 1007.2 - - - - - - - - -
24/02:30pm 27.4 NW 9 15 1007.4 - - - - - - - - -
24/02:00pm 27.4 NW 10 15 1007.5 - - - - - - - - -
24/01:30pm 27.4 NW 11 16 1007.5 - - - - - - - - -
24/01:00pm 27.8 NW 11 18 1007.4 - - - - - - - - -
24/12:30pm 28.2 NW 10 14 1007.5 - - - - - - - - -
24/12:00pm 27.4 NW 9 14 1007.4 - - - - - - - - -
24/11:30am 27.3 NW 8 12 1007.4 - - - - - - - - -
24/11:00am 26.6 NW 8 14 1007.8 - - - - - - - - -

Other Formats:

Comma delimited format used in spreadsheet applications
http://www.bom.gov.au/fwo/IDD60701/IDD60701.94108.axf

JavaScript Object Notation format (JSON) in row-major order
http://www.bom.gov.au/fwo/IDD60701/IDD60701.94108.json